createdAt,value
2023-01-19T00:00:14.078Z,0.00
2023-01-19T00:01:14.033Z,0.00
2023-01-19T00:02:14.057Z,0.00
2023-01-19T00:03:14.049Z,0.00
2023-01-19T00:04:14.036Z,0.00
2023-01-19T00:05:14.026Z,0.00
2023-01-19T00:06:14.075Z,0.00
2023-01-19T00:07:13.994Z,0.00
2023-01-19T00:08:13.987Z,0.00
2023-01-19T00:09:13.987Z,0.00
2023-01-19T00:10:14.029Z,0.00
2023-01-19T00:11:13.999Z,0.00
2023-01-19T00:12:13.982Z,0.00
2023-01-19T00:13:14.002Z,0.00
2023-01-19T00:14:13.951Z,0.00
2023-01-19T00:15:13.935Z,0.00
2023-01-19T00:16:13.960Z,0.00
2023-01-19T00:17:13.927Z,0.00
2023-01-19T00:18:13.916Z,0.00
2023-01-19T00:19:13.929Z,0.00
2023-01-19T00:20:13.904Z,0.00
2023-01-19T00:21:13.894Z,0.00
2023-01-19T00:22:13.889Z,0.00
2023-01-19T00:23:13.879Z,0.00
2023-01-19T00:24:13.872Z,0.00
2023-01-19T00:25:13.861Z,0.00
2023-01-19T00:26:13.865Z,0.00
2023-01-19T00:27:13.847Z,0.00
2023-01-19T00:28:13.870Z,0.00
2023-01-19T00:29:13.834Z,0.00
2023-01-19T00:30:13.831Z,0.00
2023-01-19T00:31:13.951Z,0.00
2023-01-19T00:32:13.817Z,0.00
2023-01-19T00:33:13.898Z,0.00
2023-01-19T00:34:13.801Z,0.00
2023-01-19T00:35:13.817Z,0.00
2023-01-19T00:36:13.790Z,0.00
2023-01-19T00:37:13.779Z,0.00
2023-01-19T00:38:13.792Z,0.00
2023-01-19T00:39:13.769Z,0.00
2023-01-19T00:40:13.758Z,0.00
2023-01-19T00:41:13.750Z,0.00
2023-01-19T00:42:13.747Z,0.00
2023-01-19T00:43:13.733Z,0.00
2023-01-19T00:44:13.731Z,0.00
2023-01-19T00:45:13.722Z,0.00
2023-01-19T00:46:13.788Z,0.00
2023-01-19T00:47:13.705Z,0.00
2023-01-19T00:48:13.702Z,0.00
2023-01-19T00:49:13.694Z,0.00
2023-01-19T00:50:13.684Z,0.00
2023-01-19T00:51:13.707Z,0.00
2023-01-19T00:52:13.670Z,0.00
2023-01-19T00:53:13.666Z,0.00
2023-01-19T00:54:13.669Z,0.00
2023-01-19T00:55:13.671Z,0.00
2023-01-19T00:56:13.644Z,0.00
2023-01-19T00:57:13.645Z,0.00
2023-01-19T00:58:13.635Z,0.00
2023-01-19T00:59:13.625Z,0.00
2023-01-19T01:00:13.632Z,0.00
2023-01-19T01:01:13.739Z,0.00
2023-01-19T01:02:13.851Z,0.00
2023-01-19T01:03:13.651Z,0.00
2023-01-19T01:04:13.679Z,0.00
2023-01-19T01:05:13.589Z,0.00
2023-01-19T01:06:13.570Z,0.00
2023-01-19T01:07:13.590Z,0.00
2023-01-19T01:08:13.565Z,0.00
2023-01-19T01:09:13.554Z,0.00
2023-01-19T01:10:13.546Z,0.00
2023-01-19T01:11:13.536Z,0.00
2023-01-19T01:12:13.530Z,0.00
2023-01-19T01:13:20.819Z,0.00
2023-01-19T01:14:13.511Z,0.00
2023-01-19T01:15:13.507Z,0.00
2023-01-19T01:16:13.518Z,0.00
2023-01-19T01:17:13.491Z,0.00
2023-01-19T01:18:13.481Z,0.00
2023-01-19T01:19:13.479Z,0.00
2023-01-19T01:20:13.471Z,0.00
2023-01-19T01:21:13.471Z,0.00
2023-01-19T01:22:13.455Z,0.00
2023-01-19T01:23:13.483Z,0.00
2023-01-19T01:24:13.439Z,0.00
2023-01-19T01:25:13.440Z,0.00
2023-01-19T01:26:13.427Z,0.00
2023-01-19T01:27:13.430Z,0.00
2023-01-19T01:28:13.407Z,0.00
2023-01-19T01:29:13.405Z,0.00
2023-01-19T01:30:13.401Z,0.00
2023-01-19T01:31:13.506Z,0.00
2023-01-19T01:32:13.376Z,0.00
2023-01-19T01:33:13.384Z,0.00
2023-01-19T01:34:13.363Z,0.00
2023-01-19T01:35:13.372Z,0.00
2023-01-19T01:36:13.355Z,0.00
2023-01-19T01:37:13.349Z,0.00
2023-01-19T01:38:13.334Z,0.00
2023-01-19T01:39:13.356Z,0.00
2023-01-19T01:40:13.327Z,0.00
2023-01-19T01:41:13.321Z,0.00
2023-01-19T01:42:13.303Z,0.00
2023-01-19T01:43:13.312Z,0.00
2023-01-19T01:44:13.292Z,0.00
2023-01-19T01:45:13.291Z,0.00
2023-01-19T01:46:13.337Z,0.00
2023-01-19T01:47:13.275Z,0.00
2023-01-19T01:48:13.260Z,0.00
2023-01-19T01:49:13.261Z,0.00
2023-01-19T01:50:13.252Z,0.00
2023-01-19T01:51:13.247Z,0.00
2023-01-19T01:52:13.233Z,0.00
2023-01-19T01:53:13.228Z,0.00
2023-01-19T01:54:13.224Z,0.00
2023-01-19T01:55:13.264Z,0.00
2023-01-19T01:56:13.215Z,0.00
2023-01-19T01:57:13.203Z,0.00
2023-01-19T01:58:13.198Z,0.00
2023-01-19T01:59:13.184Z,0.00
2023-01-19T02:00:13.171Z,0.00
2023-01-19T02:01:13.332Z,0.00
2023-01-19T02:02:13.157Z,0.00
2023-01-19T02:03:13.225Z,0.00
2023-01-19T02:04:13.144Z,0.00
2023-01-19T02:05:13.138Z,0.00
2023-01-19T02:06:13.129Z,0.00
2023-01-19T02:07:13.128Z,0.00
2023-01-19T02:08:13.113Z,0.00
2023-01-19T02:09:13.116Z,0.00
2023-01-19T02:10:13.106Z,0.00
2023-01-19T02:11:13.122Z,0.00
2023-01-19T02:12:13.083Z,0.00
2023-01-19T02:13:13.083Z,0.00
2023-01-19T02:14:13.071Z,0.00
2023-01-19T02:15:13.072Z,0.00
2023-01-19T02:16:13.053Z,0.00
2023-01-19T02:17:13.053Z,0.00
2023-01-19T02:18:13.047Z,0.00
2023-01-19T02:19:13.034Z,0.00
2023-01-19T02:20:13.028Z,0.00
2023-01-19T02:21:13.025Z,0.00
2023-01-19T02:22:13.028Z,0.00
2023-01-19T02:23:13.009Z,0.00
2023-01-19T02:24:12.995Z,0.00
2023-01-19T02:25:12.998Z,0.00
2023-01-19T02:26:12.987Z,0.00
2023-01-19T02:27:13.003Z,0.00
2023-01-19T02:28:12.965Z,0.00
2023-01-19T02:29:12.994Z,0.00
2023-01-19T02:30:12.960Z,0.00
2023-01-19T02:31:12.951Z,0.00
2023-01-19T02:32:12.944Z,0.00
2023-01-19T02:33:12.935Z,0.00
2023-01-19T02:34:12.925Z,0.00
2023-01-19T02:35:12.920Z,0.00
2023-01-19T02:36:12.911Z,0.00
2023-01-19T02:37:12.904Z,0.00
2023-01-19T02:38:12.899Z,0.00
2023-01-19T02:39:12.891Z,0.00
2023-01-19T02:40:12.877Z,0.00
2023-01-19T02:41:12.872Z,0.00
2023-01-19T02:42:12.869Z,0.00
2023-01-19T02:43:12.880Z,0.00
2023-01-19T02:44:12.850Z,0.00
2023-01-19T02:45:12.847Z,0.00
2023-01-19T02:46:12.891Z,0.00
2023-01-19T02:47:12.830Z,0.00
2023-01-19T02:48:12.827Z,0.00
2023-01-19T02:49:12.820Z,0.00
2023-01-19T02:50:12.808Z,0.00
2023-01-19T02:51:12.802Z,0.00
2023-01-19T02:52:12.792Z,0.00
2023-01-19T02:53:12.802Z,0.00
2023-01-19T02:54:12.775Z,0.00
2023-01-19T02:55:12.799Z,0.00
2023-01-19T02:56:12.771Z,0.00
2023-01-19T02:57:12.761Z,0.00
2023-01-19T02:58:12.746Z,0.00
2023-01-19T02:59:12.767Z,0.00
2023-01-19T03:00:12.732Z,0.00
2023-01-19T03:01:13.004Z,0.00
2023-01-19T03:02:12.904Z,0.00
2023-01-19T03:03:12.719Z,0.00
2023-01-19T03:04:12.719Z,0.00
2023-01-19T03:05:12.698Z,0.00
2023-01-19T03:06:12.694Z,0.00
2023-01-19T03:07:12.685Z,0.00
2023-01-19T03:08:12.694Z,0.00
2023-01-19T03:09:12.669Z,0.00
2023-01-19T03:10:12.660Z,0.00
2023-01-19T03:11:12.683Z,0.00
2023-01-19T03:12:12.975Z,0.00
2023-01-19T03:13:12.649Z,0.00
2023-01-19T03:14:12.634Z,0.00
2023-01-19T03:15:12.652Z,0.00
2023-01-19T03:16:12.773Z,0.00
2023-01-19T03:17:12.613Z,0.00
2023-01-19T03:18:12.597Z,0.00
2023-01-19T03:19:12.616Z,0.00
2023-01-19T03:20:12.585Z,0.00
2023-01-19T03:21:12.582Z,0.00
2023-01-19T03:22:12.569Z,0.00
2023-01-19T03:23:12.567Z,0.00
2023-01-19T03:24:12.562Z,0.00
2023-01-19T03:25:12.561Z,0.00
2023-01-19T03:26:12.545Z,0.00
2023-01-19T03:27:12.546Z,0.00
2023-01-19T03:28:20.749Z,0.00
2023-01-19T03:29:20.738Z,0.00
2023-01-19T03:30:20.766Z,0.00
2023-01-19T03:31:20.738Z,0.00
2023-01-19T03:32:20.720Z,0.00
2023-01-19T03:33:20.725Z,0.00
2023-01-19T03:34:20.707Z,0.00
2023-01-19T03:35:20.692Z,0.00
2023-01-19T03:36:20.689Z,0.00
2023-01-19T03:37:20.680Z,0.00
2023-01-19T03:38:20.698Z,0.00
2023-01-19T03:39:20.675Z,0.00
2023-01-19T03:40:20.661Z,0.00
2023-01-19T03:41:20.665Z,0.00
2023-01-19T03:42:20.647Z,0.00
2023-01-19T03:43:20.636Z,0.00
2023-01-19T03:44:20.628Z,0.00
2023-01-19T03:45:20.620Z,0.00
2023-01-19T03:46:20.693Z,0.00
2023-01-19T03:47:20.616Z,0.00
2023-01-19T03:48:20.602Z,0.00
2023-01-19T03:49:20.591Z,0.00
2023-01-19T03:50:20.588Z,0.00
2023-01-19T03:51:20.578Z,0.00
2023-01-19T03:52:20.576Z,0.00
2023-01-19T03:53:20.563Z,0.00
2023-01-19T03:54:20.557Z,0.00
2023-01-19T03:55:20.550Z,0.00
2023-01-19T03:56:20.544Z,0.00
2023-01-19T03:57:20.539Z,0.00
2023-01-19T03:58:20.533Z,0.00
2023-01-19T03:59:20.520Z,0.00
2023-01-19T04:00:20.515Z,0.00
2023-01-19T04:01:20.761Z,0.00
2023-01-19T04:02:20.576Z,0.00
2023-01-19T04:03:20.485Z,0.00
2023-01-19T04:04:20.481Z,0.00
2023-01-19T04:05:20.469Z,0.00
2023-01-19T04:06:20.491Z,0.00
2023-01-19T04:07:20.463Z,0.00
2023-01-19T04:08:20.452Z,0.00
2023-01-19T04:09:20.443Z,0.00
2023-01-19T04:10:20.444Z,0.00
2023-01-19T04:11:20.427Z,0.00
2023-01-19T04:12:20.426Z,0.00
2023-01-19T04:13:20.410Z,0.00
2023-01-19T04:14:20.418Z,0.00
2023-01-19T04:15:20.405Z,0.00
2023-01-19T04:16:20.496Z,0.00
2023-01-19T04:17:20.383Z,0.00
2023-01-19T04:18:20.396Z,0.00
2023-01-19T04:19:20.367Z,0.00
2023-01-19T04:20:20.365Z,0.00
2023-01-19T04:21:20.378Z,0.00
2023-01-19T04:22:20.355Z,0.00
2023-01-19T04:23:20.335Z,0.00
2023-01-19T04:24:20.332Z,0.00
2023-01-19T04:25:20.329Z,0.00
2023-01-19T04:26:20.340Z,0.00
2023-01-19T04:27:20.306Z,0.00
2023-01-19T04:28:20.304Z,0.00
2023-01-19T04:29:20.298Z,0.00
2023-01-19T04:30:20.289Z,0.00
2023-01-19T04:31:20.308Z,0.00
2023-01-19T04:32:20.278Z,0.00
2023-01-19T04:33:20.272Z,0.00
2023-01-19T04:34:20.308Z,0.00
2023-01-19T04:35:20.245Z,0.00
2023-01-19T04:36:20.242Z,0.00
2023-01-19T04:37:20.233Z,0.00
2023-01-19T04:38:20.230Z,0.00
2023-01-19T04:39:20.222Z,0.00
2023-01-19T04:40:20.218Z,0.00
2023-01-19T04:41:20.211Z,0.00
2023-01-19T04:42:20.197Z,0.00
2023-01-19T04:43:20.195Z,0.00
2023-01-19T04:44:20.190Z,0.00
2023-01-19T04:45:20.172Z,0.00
2023-01-19T04:46:20.190Z,0.00
2023-01-19T04:47:20.157Z,0.00
2023-01-19T04:48:20.154Z,0.00
2023-01-19T04:49:20.143Z,0.00
2023-01-19T04:50:20.168Z,0.00
2023-01-19T04:51:20.125Z,0.00
2023-01-19T04:52:20.126Z,0.00
2023-01-19T04:53:20.111Z,0.00
2023-01-19T04:54:20.139Z,0.00
2023-01-19T04:55:20.100Z,0.00
2023-01-19T04:56:20.090Z,0.00
2023-01-19T04:57:20.087Z,0.00
2023-01-19T04:58:20.076Z,0.00
2023-01-19T04:59:20.073Z,0.00
2023-01-19T05:00:20.064Z,0.00
2023-01-19T05:01:20.071Z,0.00
2023-01-19T05:02:20.055Z,0.00
2023-01-19T05:03:20.185Z,0.00
2023-01-19T05:04:20.038Z,0.00
2023-01-19T05:05:20.035Z,0.00
2023-01-19T05:06:20.045Z,0.00
2023-01-19T05:07:20.005Z,0.00
2023-01-19T05:08:20.024Z,0.00
2023-01-19T05:09:19.996Z,0.00
2023-01-19T05:10:19.988Z,0.00
2023-01-19T05:11:19.973Z,0.00
2023-01-19T05:12:19.983Z,0.00
2023-01-19T05:13:19.966Z,0.00
2023-01-19T05:14:19.958Z,0.00
2023-01-19T05:15:19.946Z,0.00
2023-01-19T05:16:19.985Z,0.00
2023-01-19T05:17:19.933Z,0.00
2023-01-19T05:18:19.929Z,0.00
2023-01-19T05:19:19.918Z,0.00
2023-01-19T05:20:19.911Z,0.00
2023-01-19T05:21:19.903Z,0.00
2023-01-19T05:22:19.919Z,0.00
2023-01-19T05:23:19.883Z,0.00
2023-01-19T05:24:19.885Z,0.00
2023-01-19T05:25:19.879Z,0.00
2023-01-19T05:26:19.869Z,0.00
2023-01-19T05:27:19.856Z,0.00
2023-01-19T05:28:19.851Z,0.00
2023-01-19T05:29:19.840Z,0.00
2023-01-19T05:30:19.841Z,0.00
2023-01-19T05:31:19.953Z,0.00
2023-01-19T05:32:19.819Z,0.00
2023-01-19T05:33:19.808Z,0.00
2023-01-19T05:34:19.810Z,0.00
2023-01-19T05:35:27.769Z,0.00
2023-01-19T05:36:19.795Z,0.00
2023-01-19T05:37:19.777Z,0.00
2023-01-19T05:38:29.283Z,0.00
2023-01-19T05:39:19.761Z,0.00
2023-01-19T05:40:19.759Z,0.00
2023-01-19T05:41:19.744Z,0.00
2023-01-19T05:42:19.749Z,0.00
2023-01-19T05:43:19.736Z,0.00
2023-01-19T05:44:19.727Z,0.00
2023-01-19T05:45:19.717Z,0.00
2023-01-19T05:46:19.733Z,0.00
2023-01-19T05:47:19.702Z,0.00
2023-01-19T05:48:19.697Z,0.00
2023-01-19T05:49:19.696Z,0.00
2023-01-19T05:50:19.682Z,0.00
2023-01-19T05:51:19.675Z,0.00
2023-01-19T05:52:19.667Z,0.00
2023-01-19T05:53:19.656Z,0.00
2023-01-19T05:54:19.679Z,0.00
2023-01-19T05:55:19.637Z,0.00
2023-01-19T05:56:19.636Z,0.00
2023-01-19T05:57:19.624Z,0.00
2023-01-19T05:58:19.620Z,0.00
2023-01-19T05:59:19.607Z,0.00
2023-01-19T06:00:19.601Z,0.00
2023-01-19T06:01:19.677Z,0.00
2023-01-19T06:02:19.608Z,0.00
2023-01-19T06:03:19.591Z,0.00
2023-01-19T06:04:19.574Z,0.00
2023-01-19T06:05:19.571Z,0.00
2023-01-19T06:06:19.555Z,0.00
2023-01-19T06:07:19.540Z,0.00
2023-01-19T06:08:19.538Z,0.00
2023-01-19T06:09:19.532Z,0.00
2023-01-19T06:10:19.546Z,0.00
2023-01-19T06:11:19.520Z,0.00
2023-01-19T06:12:19.507Z,0.00
2023-01-19T06:13:19.495Z,0.00
2023-01-19T06:14:19.489Z,0.00
2023-01-19T06:15:19.482Z,0.00
2023-01-19T06:16:19.551Z,0.00
2023-01-19T06:17:19.464Z,0.00
2023-01-19T06:18:19.462Z,0.00
2023-01-19T06:19:19.451Z,0.00
2023-01-19T06:20:19.447Z,0.00
2023-01-19T06:21:19.430Z,0.00
2023-01-19T06:22:19.430Z,0.00
2023-01-19T06:23:19.420Z,0.00
2023-01-19T06:24:19.422Z,0.00
2023-01-19T06:25:19.400Z,0.00
2023-01-19T06:26:19.422Z,0.00
2023-01-19T06:27:19.390Z,0.00
2023-01-19T06:28:19.383Z,0.00
2023-01-19T06:29:19.368Z,0.00
2023-01-19T06:30:19.365Z,0.00
2023-01-19T06:31:19.417Z,0.00
2023-01-19T06:32:19.347Z,0.00
2023-01-19T06:33:19.337Z,0.00
2023-01-19T06:34:19.332Z,0.00
2023-01-19T06:35:19.331Z,0.00
2023-01-19T06:36:19.340Z,0.00
2023-01-19T06:37:19.304Z,0.00
2023-01-19T06:38:19.325Z,0.00
2023-01-19T06:39:19.306Z,0.00
2023-01-19T06:40:19.283Z,0.00
2023-01-19T06:41:19.272Z,0.00
2023-01-19T06:42:19.291Z,0.00
2023-01-19T06:43:19.289Z,0.00
2023-01-19T06:44:19.262Z,0.00
2023-01-19T06:45:19.272Z,0.00
2023-01-19T06:46:19.265Z,0.00
2023-01-19T06:47:19.226Z,0.00
2023-01-19T06:48:19.221Z,0.00
2023-01-19T06:49:19.211Z,0.00
2023-01-19T06:50:19.204Z,0.00
2023-01-19T06:51:19.191Z,0.00
2023-01-19T06:52:19.189Z,0.00
2023-01-19T06:53:19.177Z,0.00
2023-01-19T06:54:19.177Z,0.00
2023-01-19T06:55:19.183Z,0.00
2023-01-19T06:56:19.202Z,0.00
2023-01-19T06:57:19.150Z,0.00
2023-01-19T06:58:19.163Z,0.00
2023-01-19T06:59:19.132Z,0.00
2023-01-19T07:00:19.121Z,0.00
2023-01-19T07:01:19.237Z,0.00
2023-01-19T07:02:27.292Z,5.63
2023-01-19T07:03:19.197Z,5.63
2023-01-19T07:04:19.108Z,5.63
2023-01-19T07:05:19.081Z,5.63
2023-01-19T07:06:19.088Z,5.63
2023-01-19T07:07:19.077Z,5.63
2023-01-19T07:08:19.078Z,5.63
2023-01-19T07:09:19.053Z,5.63
2023-01-19T07:10:19.049Z,5.63
2023-01-19T07:11:27.146Z,5.63
2023-01-19T07:12:19.036Z,11.25
2023-01-19T07:13:19.025Z,11.25
2023-01-19T07:14:19.039Z,11.25
2023-01-19T07:15:19.001Z,11.25
2023-01-19T07:16:19.062Z,11.25
2023-01-19T07:17:18.997Z,11.25
2023-01-19T07:18:18.986Z,11.25
2023-01-19T07:19:18.971Z,11.25
2023-01-19T07:20:18.974Z,16.88
2023-01-19T07:21:18.958Z,16.88
2023-01-19T07:22:18.971Z,16.88
2023-01-19T07:23:18.939Z,22.50
2023-01-19T07:24:18.953Z,22.50
2023-01-19T07:25:18.927Z,22.50
2023-01-19T07:26:18.922Z,22.50
2023-01-19T07:27:18.910Z,22.50
2023-01-19T07:28:18.912Z,28.13
2023-01-19T07:29:18.898Z,28.13
2023-01-19T07:30:18.918Z,28.13
2023-01-19T07:31:19.153Z,28.13
2023-01-19T07:33:18.865Z,28.13
2023-01-19T07:34:18.853Z,33.75
2023-01-19T07:35:18.859Z,33.75
2023-01-19T07:36:18.839Z,33.75
2023-01-19T07:37:18.834Z,33.75
2023-01-19T07:38:18.818Z,33.75
2023-01-19T07:39:18.823Z,33.75
2023-01-19T07:40:18.812Z,39.38
2023-01-19T07:41:18.802Z,39.38
2023-01-19T07:42:18.790Z,39.38
2023-01-19T07:43:18.784Z,39.38
2023-01-19T07:44:18.774Z,45.00
2023-01-19T07:45:18.771Z,45.00
2023-01-19T07:46:18.838Z,45.00
2023-01-19T07:47:18.773Z,50.63
2023-01-19T07:48:18.751Z,50.63
2023-01-19T07:49:18.743Z,50.63
2023-01-19T07:50:18.742Z,56.25
2023-01-19T07:51:18.778Z,56.25
2023-01-19T07:52:18.718Z,61.88
2023-01-19T07:53:18.731Z,61.88
2023-01-19T07:54:18.713Z,61.88
2023-01-19T07:55:18.694Z,67.50
2023-01-19T07:56:18.692Z,67.50
2023-01-19T07:57:18.676Z,73.13
2023-01-19T07:58:18.670Z,73.13
2023-01-19T07:59:18.660Z,73.13
2023-01-19T08:00:18.659Z,73.13
2023-01-19T08:01:18.752Z,78.75
2023-01-19T08:02:18.712Z,78.75
2023-01-19T08:03:18.658Z,84.38
2023-01-19T08:04:18.680Z,84.38
2023-01-19T08:05:18.623Z,84.38
2023-01-19T08:06:18.619Z,90.00
2023-01-19T08:07:18.595Z,101.25
2023-01-19T08:08:18.595Z,118.13
2023-01-19T08:09:18.589Z,135.00
2023-01-19T08:10:18.585Z,123.75
2023-01-19T08:11:18.579Z,112.50
2023-01-19T08:12:18.572Z,123.75
2023-01-19T08:13:18.572Z,146.25
2023-01-19T08:14:18.557Z,151.88
2023-01-19T08:15:18.547Z,129.38
2023-01-19T08:16:18.545Z,146.25
2023-01-19T08:17:18.524Z,236.25
2023-01-19T08:18:18.560Z,253.13
2023-01-19T08:19:18.519Z,202.50
2023-01-19T08:20:18.504Z,219.38
2023-01-19T08:21:18.506Z,230.63
2023-01-19T08:22:18.491Z,247.50
2023-01-19T08:23:18.479Z,247.50
2023-01-19T08:24:18.618Z,219.38
2023-01-19T08:25:18.464Z,213.75
2023-01-19T08:26:18.464Z,185.63
2023-01-19T08:27:18.453Z,185.63
2023-01-19T08:28:18.467Z,236.25
2023-01-19T08:29:18.462Z,236.25
2023-01-19T08:30:18.437Z,219.38
2023-01-19T08:31:21.726Z,225.00
2023-01-19T08:32:18.574Z,236.25
2023-01-19T08:33:18.415Z,208.13
2023-01-19T08:34:18.461Z,146.25
2023-01-19T08:35:18.395Z,140.63
2023-01-19T08:36:18.393Z,151.88
2023-01-19T08:37:18.380Z,180.00
2023-01-19T08:38:18.387Z,230.63
2023-01-19T08:39:18.363Z,253.13
2023-01-19T08:40:18.386Z,219.38
2023-01-19T08:41:18.365Z,219.38
2023-01-19T08:42:18.358Z,219.38
2023-01-19T08:43:18.341Z,225.00
2023-01-19T08:44:18.343Z,253.13
2023-01-19T08:45:18.328Z,298.13
2023-01-19T08:46:18.391Z,320.63
2023-01-19T08:47:18.349Z,281.25
2023-01-19T08:48:18.309Z,264.38
2023-01-19T08:49:18.307Z,281.25
2023-01-19T08:50:18.327Z,326.25
2023-01-19T08:51:18.305Z,326.25
2023-01-19T08:52:18.289Z,286.88
2023-01-19T08:53:18.282Z,303.75
2023-01-19T08:54:18.733Z,416.25
2023-01-19T08:55:18.286Z,551.25
2023-01-19T08:56:20.530Z,590.63
2023-01-19T08:57:18.246Z,573.75
2023-01-19T08:58:18.247Z,517.50
2023-01-19T08:59:18.232Z,410.63
2023-01-19T09:00:18.223Z,348.75
2023-01-19T09:01:18.294Z,343.13
2023-01-19T09:02:18.240Z,343.13
2023-01-19T09:03:18.246Z,348.75
2023-01-19T09:04:18.210Z,331.88
2023-01-19T09:05:18.198Z,331.88
2023-01-19T09:06:18.324Z,337.50
2023-01-19T09:07:18.191Z,337.50
2023-01-19T09:08:18.184Z,315.00
2023-01-19T09:09:18.175Z,286.88
2023-01-19T09:10:18.166Z,264.38
2023-01-19T09:11:18.158Z,270.00
2023-01-19T09:12:18.157Z,286.88
2023-01-19T09:13:18.149Z,298.13
2023-01-19T09:14:18.142Z,303.75
2023-01-19T09:15:18.135Z,315.00
2023-01-19T09:16:18.202Z,315.00
2023-01-19T09:17:18.135Z,331.88
2023-01-19T09:18:18.123Z,478.13
2023-01-19T09:19:18.131Z,523.13
2023-01-19T09:20:18.112Z,826.88
2023-01-19T09:21:18.108Z,1192.50
2023-01-19T09:22:18.123Z,1068.75
2023-01-19T09:23:18.090Z,911.25
2023-01-19T09:24:18.101Z,877.50
2023-01-19T09:25:18.096Z,967.50
2023-01-19T09:26:18.082Z,922.50
2023-01-19T09:27:18.075Z,826.88
2023-01-19T09:28:18.072Z,1012.50
2023-01-19T09:29:18.073Z,1153.13
2023-01-19T09:30:18.072Z,939.38
2023-01-19T09:31:18.112Z,798.75
2023-01-19T09:32:18.059Z,973.13
2023-01-19T09:33:18.052Z,1029.38
2023-01-19T09:34:18.049Z,1046.25
2023-01-19T09:35:18.054Z,1186.88
2023-01-19T09:36:18.041Z,1276.88
2023-01-19T09:37:18.037Z,1130.63
2023-01-19T09:38:18.056Z,1209.38
2023-01-19T09:39:18.029Z,1203.75
2023-01-19T09:40:18.021Z,1063.13
2023-01-19T09:41:18.016Z,1243.13
2023-01-19T09:42:18.018Z,1445.63
2023-01-19T09:43:18.013Z,1327.50
2023-01-19T09:44:18.013Z,1271.25
2023-01-19T09:45:18.105Z,1299.38
2023-01-19T09:46:18.040Z,1417.50
2023-01-19T09:47:17.991Z,1479.38
2023-01-19T09:48:17.991Z,1513.13
2023-01-19T09:49:18.016Z,1490.63
2023-01-19T09:50:17.989Z,1479.38
2023-01-19T09:51:17.980Z,1411.88
2023-01-19T09:52:17.977Z,1350.00
2023-01-19T09:53:17.970Z,1434.38
2023-01-19T09:54:18.022Z,1501.88
2023-01-19T09:55:17.965Z,1338.75
2023-01-19T09:56:17.967Z,1338.75
2023-01-19T09:57:17.961Z,1051.88
2023-01-19T09:58:17.964Z,714.38
2023-01-19T09:59:17.953Z,607.50
2023-01-19T10:00:17.951Z,579.38
2023-01-19T10:01:18.014Z,540.00
2023-01-19T10:02:17.950Z,523.13
2023-01-19T10:03:17.993Z,483.75
2023-01-19T10:04:17.938Z,450.00
2023-01-19T10:05:17.933Z,421.88
2023-01-19T10:06:17.934Z,405.00
2023-01-19T10:07:17.934Z,371.25
2023-01-19T10:08:17.938Z,354.38
2023-01-19T10:09:17.925Z,343.13
2023-01-19T10:10:17.950Z,399.38
2023-01-19T10:11:17.915Z,568.13
2023-01-19T10:12:19.727Z,455.63
2023-01-19T10:13:17.911Z,286.88
2023-01-19T10:14:17.911Z,264.38
2023-01-19T10:15:17.895Z,258.75
2023-01-19T10:16:18.019Z,247.50
2023-01-19T10:17:17.892Z,247.50
2023-01-19T10:18:17.896Z,236.25
2023-01-19T10:19:17.889Z,236.25
2023-01-19T10:20:17.909Z,230.63
2023-01-19T10:21:17.880Z,236.25
2023-01-19T10:22:17.888Z,230.63
2023-01-19T10:23:17.875Z,230.63
2023-01-19T10:24:17.881Z,230.63
2023-01-19T10:25:17.908Z,230.63
2023-01-19T10:26:17.896Z,230.63
2023-01-19T10:27:17.920Z,230.63
2023-01-19T10:28:17.856Z,225.00
2023-01-19T10:29:17.858Z,230.63
2023-01-19T10:30:17.847Z,230.63
2023-01-19T10:31:17.944Z,230.63
2023-01-19T10:32:17.847Z,225.00
2023-01-19T10:33:17.853Z,225.00
2023-01-19T10:34:20.407Z,225.00
2023-01-19T10:35:17.838Z,230.63
2023-01-19T10:36:17.824Z,225.00
2023-01-19T10:37:17.827Z,230.63
2023-01-19T10:38:17.818Z,230.63
2023-01-19T10:39:17.853Z,230.63
2023-01-19T10:40:17.861Z,230.63
2023-01-19T10:41:17.816Z,230.63
2023-01-19T10:42:17.892Z,236.25
2023-01-19T10:43:17.797Z,230.63
2023-01-19T10:44:17.806Z,230.63
2023-01-19T10:45:17.790Z,236.25
2023-01-19T10:46:17.847Z,236.25
2023-01-19T10:47:17.801Z,230.63
2023-01-19T10:48:17.837Z,230.63
2023-01-19T10:49:17.787Z,236.25
2023-01-19T10:50:17.883Z,236.25
2023-01-19T10:51:17.832Z,230.63
2023-01-19T10:52:19.031Z,230.63
2023-01-19T10:53:17.771Z,230.63
2023-01-19T10:54:17.807Z,225.00
2023-01-19T10:55:17.813Z,230.63
2023-01-19T10:56:17.774Z,225.00
2023-01-19T10:57:17.740Z,225.00
2023-01-19T10:58:19.003Z,225.00
2023-01-19T10:59:17.731Z,225.00
2023-01-19T11:00:17.837Z,225.00
2023-01-19T11:01:17.933Z,225.00
2023-01-19T11:02:18.005Z,225.00
2023-01-19T11:03:17.815Z,225.00
2023-01-19T11:04:17.767Z,225.00
2023-01-19T11:05:17.713Z,225.00
2023-01-19T11:06:17.751Z,230.63
2023-01-19T11:07:17.705Z,225.00
2023-01-19T11:08:17.696Z,225.00
2023-01-19T11:09:17.700Z,230.63
2023-01-19T11:10:17.964Z,236.25
2023-01-19T11:11:17.687Z,236.25
2023-01-19T11:12:17.680Z,230.63
2023-01-19T11:13:17.673Z,236.25
2023-01-19T11:14:17.702Z,230.63
2023-01-19T11:15:17.686Z,230.63
2023-01-19T11:16:17.740Z,236.25
2023-01-19T11:17:17.658Z,230.63
2023-01-19T11:18:17.991Z,230.63
2023-01-19T11:19:17.652Z,230.63
2023-01-19T11:20:17.717Z,230.63
2023-01-19T11:21:17.643Z,230.63
2023-01-19T11:22:17.642Z,230.63
2023-01-19T11:23:17.638Z,230.63
2023-01-19T11:24:17.641Z,225.00
2023-01-19T11:25:17.628Z,230.63
2023-01-19T11:26:17.627Z,230.63
2023-01-19T11:27:17.622Z,225.00
2023-01-19T11:28:17.616Z,219.38
2023-01-19T11:29:17.612Z,225.00
2023-01-19T11:30:17.680Z,225.00
2023-01-19T11:31:17.759Z,219.38
2023-01-19T11:32:17.602Z,213.75
2023-01-19T11:33:17.593Z,225.00
2023-01-19T11:34:17.591Z,230.63
2023-01-19T11:35:17.585Z,230.63
2023-01-19T11:36:17.606Z,236.25
2023-01-19T11:37:17.579Z,230.63
2023-01-19T11:38:17.591Z,236.25
2023-01-19T11:39:17.575Z,241.88
2023-01-19T11:40:17.566Z,247.50
2023-01-19T11:41:17.565Z,247.50
2023-01-19T11:42:17.561Z,236.25
2023-01-19T11:43:17.553Z,253.13
2023-01-19T11:44:17.554Z,253.13
2023-01-19T11:45:17.548Z,253.13
2023-01-19T11:46:17.692Z,253.13
2023-01-19T11:47:17.538Z,253.13
2023-01-19T11:48:17.537Z,253.13
2023-01-19T11:49:17.530Z,253.13
2023-01-19T11:50:17.530Z,253.13
2023-01-19T11:51:17.519Z,247.50
2023-01-19T11:52:17.517Z,247.50
2023-01-19T11:53:17.515Z,236.25
2023-01-19T11:54:17.509Z,236.25
2023-01-19T11:55:17.520Z,230.63
2023-01-19T11:56:17.522Z,219.38
2023-01-19T11:57:17.560Z,213.75
2023-01-19T11:58:17.509Z,219.38
2023-01-19T11:59:17.489Z,208.13
2023-01-19T12:00:17.491Z,208.13
2023-01-19T12:01:17.554Z,202.50
2023-01-19T12:02:17.604Z,202.50
2023-01-19T12:03:17.517Z,208.13
2023-01-19T12:04:17.473Z,208.13
2023-01-19T12:05:17.471Z,202.50
2023-01-19T12:06:17.469Z,202.50
2023-01-19T12:07:17.483Z,208.13
2023-01-19T12:08:17.453Z,208.13
2023-01-19T12:09:17.458Z,208.13
2023-01-19T12:10:17.449Z,196.88
2023-01-19T12:11:17.454Z,196.88
2023-01-19T12:12:17.443Z,196.88
2023-01-19T12:13:17.447Z,196.88
2023-01-19T12:14:17.430Z,185.63
2023-01-19T12:15:17.450Z,185.63
2023-01-19T12:16:17.501Z,191.25
2023-01-19T12:17:17.418Z,185.63
2023-01-19T12:18:17.468Z,185.63
2023-01-19T12:19:17.430Z,191.25
2023-01-19T12:20:17.407Z,185.63
2023-01-19T12:21:17.416Z,185.63
2023-01-19T12:22:17.402Z,180.00
2023-01-19T12:23:17.400Z,168.75
2023-01-19T12:24:17.425Z,174.38
2023-01-19T12:25:17.393Z,174.38
2023-01-19T12:26:17.385Z,180.00
2023-01-19T12:27:17.383Z,180.00
2023-01-19T12:28:17.376Z,174.38
2023-01-19T12:29:17.382Z,168.75
2023-01-19T12:30:17.367Z,168.75
2023-01-19T12:31:17.478Z,174.38
2023-01-19T12:32:17.400Z,163.13
2023-01-19T12:33:17.358Z,168.75
2023-01-19T12:34:17.496Z,168.75
2023-01-19T12:35:17.359Z,163.13
2023-01-19T12:36:17.348Z,168.75
2023-01-19T12:37:17.344Z,168.75
2023-01-19T12:38:17.333Z,163.13
2023-01-19T12:39:17.329Z,163.13
2023-01-19T12:40:17.332Z,163.13
2023-01-19T12:41:17.329Z,168.75
2023-01-19T12:42:18.472Z,168.75
2023-01-19T12:43:17.325Z,168.75
2023-01-19T12:44:17.321Z,163.13
2023-01-19T12:45:17.324Z,157.50
2023-01-19T12:46:17.362Z,163.13
2023-01-19T12:47:17.298Z,157.50
2023-01-19T12:48:17.289Z,151.88
2023-01-19T12:49:17.295Z,151.88
2023-01-19T12:50:17.313Z,151.88
2023-01-19T12:51:17.286Z,151.88
2023-01-19T12:52:17.279Z,163.13
2023-01-19T12:53:17.276Z,163.13
2023-01-19T12:54:17.267Z,157.50
2023-01-19T12:55:17.281Z,157.50
2023-01-19T12:56:17.280Z,151.88
2023-01-19T12:57:17.260Z,118.13